Time;durP1;ratioP1;P1;durP2;ratioP2;P2;SDS_P1;SDS_P2;PMS_P1;PMS_P2;Temp;Humidity;BMP_temperature;BMP_pressure;BME280_temperature;BME280_humidity;BME280_pressure;Samples;Min_cycle;Max_cycle;Signal;HPM_P1;HPM_P2
2024/03/14 00:01:16;;;;;;;35.33;15.82;;;;;;;8.00;100.00;100732.38;5030054;28;20407;-82
2024/03/14 00:03:44;;;;;;;35.05;15.38;;;;;;;7.94;100.00;100730.72;5032993;28;20411;-81
2024/03/14 00:06:12;;;;;;;34.08;16.10;;;;;;;7.97;100.00;100737.50;5033336;28;20423;-81
2024/03/14 00:08:41;;;;;;;32.80;15.40;;;;;;;7.90;100.00;100724.19;5046861;28;20514;-82
2024/03/14 00:11:14;;;;;;;33.95;15.05;;;;;;;7.85;100.00;100736.88;5031188;28;20749;-81
2024/03/14 00:13:47;;;;;;;30.17;14.27;;;;;;;7.84;100.00;100730.63;5029217;28;20413;-82
2024/03/14 00:16:16;;;;;;;37.00;15.70;;;;;;;7.82;100.00;100743.63;5017908;28;20431;-81
2024/03/14 00:18:44;;;;;;;34.25;15.77;;;;;;;7.77;100.00;100736.25;5040760;28;20404;-80
2024/03/14 00:21:14;;;;;;;32.58;14.68;;;;;;;7.80;100.00;100740.34;5012745;28;20763;-81
2024/03/14 00:23:44;;;;;;;35.90;16.15;;;;;;;7.77;100.00;100740.88;5017014;28;20423;-81
2024/03/14 00:26:18;;;;;;;40.80;16.05;;;;;;;7.89;100.00;100738.00;5015320;28;20421;-82
2024/03/14 00:28:46;;;;;;;33.55;15.00;;;;;;;7.87;100.00;100727.41;5046145;28;21086;-81
2024/03/14 00:31:15;;;;;;;33.10;15.75;;;;;;;7.84;100.00;100727.91;5035067;28;20427;-81
2024/03/14 00:33:48;;;;;;;34.03;15.25;;;;;;;7.84;100.00;100727.91;5037495;28;20407;-82
2024/03/14 00:36:22;;;;;;;38.85;16.35;;;;;;;7.82;100.00;100725.47;5030021;28;20427;-81
2024/03/14 00:38:50;;;;;;;38.08;16.30;;;;;;;7.80;100.00;100722.22;5015181;28;20419;-82
2024/03/14 00:41:19;;;;;;;37.78;15.82;;;;;;;7.77;100.00;100719.19;5030990;28;20428;-81
2024/03/14 00:43:48;;;;;;;38.10;15.52;;;;;;;7.77;100.00;100720.00;5022743;28;20423;-82
2024/03/14 00:46:17;;;;;;;36.17;15.38;;;;;;;7.81;100.00;100723.84;5036498;28;20426;-82
2024/03/14 00:48:45;;;;;;;40.20;15.70;;;;;;;7.75;100.00;100718.66;5038204;28;20431;-81
2024/03/14 00:51:14;;;;;;;41.67;17.20;;;;;;;7.66;100.00;100718.31;5024170;28;20777;-80
2024/03/14 00:53:47;;;;;;;39.38;16.08;;;;;;;7.66;100.00;100710.19;5035935;28;21265;-81
2024/03/14 00:56:24;;;;;;;38.53;15.95;;;;;;;7.72;100.00;100713.75;5028320;28;20411;-81
2024/03/14 00:58:58;;;;;;;39.28;15.70;;;;;;;7.73;100.00;100715.38;5040159;28;20410;-81
2024/03/14 01:01:26;;;;;;;39.10;15.32;;;;;;;7.77;100.00;100711.06;5018444;28;20424;-81
2024/03/14 01:03:55;;;;;;;36.15;15.20;;;;;;;7.77;100.00;100702.94;5025836;28;20434;-81
2024/03/14 01:06:24;;;;;;;37.63;15.65;;;;;;;7.81;100.00;100706.78;5034037;28;20932;-80
2024/03/14 01:08:53;;;;;;;38.55;15.63;;;;;;;7.79;100.00;100709.75;5015781;28;20415;-81
2024/03/14 01:11:22;;;;;;;39.15;15.30;;;;;;;7.89;100.00;100700.06;5020124;28;20514;-81
2024/03/14 01:13:51;;;;;;;39.38;15.85;;;;;;;7.96;100.00;100695.22;5019704;28;20447;-80
2024/03/14 01:16:19;;;;;;;38.63;15.98;;;;;;;7.95;100.00;100702.50;5030490;28;20404;-81
2024/03/14 01:18:53;;;;;;;42.87;17.00;;;;;;;7.89;100.00;100697.34;5029572;28;20489;-80
2024/03/14 01:21:27;;;;;;;43.00;15.98;;;;;;;7.83;100.00;100691.88;5022410;28;20424;-80
2024/03/14 01:24:00;;;;;;;40.67;16.10;;;;;;;7.88;100.00;100687.59;5030486;28;20456;-82
2024/03/14 01:26:28;;;;;;;46.03;16.77;;;;;;;7.80;100.00;100686.16;5034241;28;20413;-80
2024/03/14 01:28:57;;;;;;;41.50;16.00;;;;;;;7.80;100.00;100681.59;5012378;28;20432;-82
2024/03/14 01:31:30;;;;;;;47.33;16.85;;;;;;;7.88;100.00;100677.53;5038874;28;20420;-81
2024/03/14 01:34:05;;;;;;;43.53;16.75;;;;;;;7.73;100.00;100666.63;5055813;28;20949;-81
2024/03/14 01:36:34;;;;;;;45.83;17.33;;;;;;;7.77;100.00;100670.44;5024904;28;20467;-81
2024/03/14 01:39:04;;;;;;;41.55;16.63;;;;;;;7.72;100.00;100682.06;5035412;28;20442;-81
2024/03/14 01:41:33;;;;;;;50.22;17.60;;;;;;;7.73;100.00;100670.13;5014061;28;20425;-81
2024/03/14 01:44:01;;;;;;;47.00;17.83;;;;;;;7.76;100.00;100666.94;5019733;28;20424;-81
2024/03/14 01:46:30;;;;;;;44.05;17.55;;;;;;;7.64;100.00;100677.94;5049760;28;20403;-80
2024/03/14 01:48:58;;;;;;;48.22;17.45;;;;;;;7.65;100.00;100678.75;5040208;28;20427;-80
2024/03/14 01:51:31;;;;;;;46.08;17.13;;;;;;;7.72;100.00;100673.09;5040098;28;20921;-80
2024/03/14 01:54:00;;;;;;;46.25;17.40;;;;;;;7.73;100.00;100666.63;5022689;28;20807;-81
2024/03/14 01:56:31;;;;;;;43.22;17.38;;;;;;;7.66;100.00;100669.56;5021700;28;20415;-81
2024/03/14 01:59:04;;;;;;;46.83;17.63;;;;;;;7.87;100.00;100664.25;5021026;28;20932;-80
2024/03/14 02:01:38;;;;;;;44.30;16.63;;;;;;;7.86;100.00;100663.47;5031308;28;20904;-82
2024/03/14 02:04:12;;;;;;;45.72;18.35;;;;;;;7.97;100.00;100665.16;5054853;28;20919;-80
2024/03/14 02:06:41;;;;;;;50.33;18.25;;;;;;;7.95;100.00;100667.28;5017666;28;20436;-82
2024/03/14 02:09:17;;;;;;;46.42;17.73;;;;;;;7.95;100.00;100658.34;5019373;28;20425;-81
2024/03/14 02:11:50;;;;;;;51.00;18.05;;;;;;;8.05;100.00;100657.59;5049861;28;20403;-80
2024/03/14 02:14:24;;;;;;;47.95;17.83;;;;;;;8.03;100.00;100641.59;5029995;28;20421;-81
2024/03/14 02:16:55;;;;;;;49.88;18.08;;;;;;;8.04;100.00;100647.81;5038294;28;20426;-81
2024/03/14 02:19:28;;;;;;;47.23;18.03;;;;;;;8.06;100.00;100649.19;5022189;28;20462;-81
2024/03/14 02:21:58;;;;;;;50.55;19.42;;;;;;;8.07;100.00;100652.72;5025473;28;20425;-84
2024/03/14 02:24:27;;;;;;;52.85;19.05;;;;;;;8.10;100.00;100653.00;5021260;28;20434;-81
2024/03/14 02:27:04;;;;;;;50.60;18.25;;;;;;;8.09;100.00;100645.97;5029075;28;20433;-81
2024/03/14 02:29:33;;;;;;;54.17;19.38;;;;;;;8.10;100.00;100641.34;5031238;28;20421;-80
2024/03/14 02:32:01;;;;;;;53.50;18.60;;;;;;;8.23;100.00;100642.75;5041913;28;20897;-80
2024/03/14 02:34:30;;;;;;;48.40;19.02;;;;;;;8.17;100.00;100648.19;5022821;28;20416;-81
2024/03/14 02:37:03;;;;;;;49.83;18.42;;;;;;;8.18;100.00;100644.38;5034251;28;20427;-80
2024/03/14 02:39:36;;;;;;;49.60;18.35;;;;;;;8.21;100.00;100644.94;5029625;28;20901;-80
2024/03/14 02:42:06;;;;;;;50.33;19.20;;;;;;;8.28;100.00;100642.78;5042649;28;20427;-81
2024/03/14 02:44:34;;;;;;;45.77;18.83;;;;;;;8.37;100.00;100643.91;5028851;28;20436;-80
2024/03/14 02:47:08;;;;;;;45.95;18.85;;;;;;;8.38;100.00;100647.44;5035635;28;20421;-81
2024/03/14 02:49:37;;;;;;;43.67;17.90;;;;;;;8.32;100.00;100639.28;5030678;28;20421;-80
2024/03/14 02:52:11;;;;;;;39.95;16.75;;;;;;;8.32;100.00;100641.19;5037312;28;20411;-80
2024/03/14 02:54:44;;;;;;;42.78;18.27;;;;;;;8.27;100.00;100639.28;5032906;28;20419;-82
2024/03/14 02:57:13;;;;;;;41.65;17.63;;;;;;;8.32;100.00;100635.75;5033114;28;20779;-81
2024/03/14 02:59:46;;;;;;;50.73;18.53;;;;;;;8.29;100.00;100634.38;5038870;28;20447;-80
2024/03/14 03:02:15;;;;;;;45.55;18.85;;;;;;;8.29;100.00;100633.59;5035268;28;20434;-80
2024/03/14 03:04:44;;;;;;;47.20;18.77;;;;;;;8.31;100.00;100626.81;5040427;28;20422;-81
2024/03/14 03:07:18;;;;;;;46.13;19.23;;;;;;;8.37;100.00;100627.66;5020517;28;20429;-81
2024/03/14 03:09:47;;;;;;;45.72;18.95;;;;;;;8.36;100.00;100626.00;5035389;28;20413;-81
2024/03/14 03:12:16;;;;;;;42.73;18.63;;;;;;;8.41;100.00;100622.47;5019854;28;20438;-81
2024/03/14 03:14:52;;;;;;;49.15;18.88;;;;;;;8.41;100.00;100619.78;5022019;28;20422;-82
2024/03/14 03:17:26;;;;;;;45.58;18.17;;;;;;;8.36;100.00;100619.78;5017101;28;20915;-81
2024/03/14 03:20:09;;;;;;;45.55;18.77;;;;;;;8.36;100.00;100615.16;5015141;28;20410;-80
2024/03/14 03:25:28;;;;;;;43.95;18.45;;;;;;;8.31;100.00;100613.25;5021861;28;20422;-82
2024/03/14 03:27:55;;;;;;;46.17;19.38;;;;;;;8.46;100.00;100619.81;5030528;28;20407;-81
2024/03/14 03:30:24;;;;;;;42.25;18.17;;;;;;;8.46;100.00;100620.63;5044106;28;20403;-81
2024/03/14 03:32:57;;;;;;;47.15;18.38;;;;;;;8.41;100.00;100615.19;5021364;28;20420;-81
2024/03/14 03:35:24;;;;;;;43.25;17.95;;;;;;;8.40;100.00;100612.75;5033450;28;20416;-82
2024/03/14 03:38:00;;;;;;;42.67;18.48;;;;;;;8.38;100.00;100609.47;5033263;28;20486;-80
2024/03/14 03:40:35;;;;;;;45.25;18.42;;;;;;;8.40;100.00;100613.53;5026547;28;20410;-81
2024/03/14 03:43:04;;;;;;;46.95;19.30;;;;;;;8.51;100.00;100607.09;5030734;28;20923;-85
2024/03/14 03:45:32;;;;;;;42.92;18.58;;;;;;;8.53;100.00;100609.53;5022375;28;20421;-80
2024/03/14 03:48:05;;;;;;;43.83;18.73;;;;;;;8.54;100.00;100607.66;5032608;28;20427;-80
2024/03/14 03:50:34;;;;;;;39.63;17.90;;;;;;;8.55;100.00;100607.38;5019187;28;20428;-80
2024/03/14 03:53:01;;;;;;;41.80;18.83;;;;;;;8.60;100.00;100609.28;5027582;28;20483;-80
2024/03/14 03:55:34;;;;;;;41.03;18.27;;;;;;;8.53;100.00;100606.81;5025323;28;20439;-80
2024/03/14 03:58:07;;;;;;;37.80;16.98;;;;;;;8.50;100.00;100608.16;5031222;28;20979;-81
2024/03/14 04:00:41;;;;;;;40.15;17.83;;;;;;;8.63;100.00;100596.00;5041294;28;20412;-81
2024/03/14 04:03:11;;;;;;;38.90;16.97;;;;;;;8.62;100.00;100596.28;5035065;28;20415;-82
2024/03/14 04:05:39;;;;;;;39.83;17.80;;;;;;;8.59;100.00;100602.22;5048158;28;20416;-81
2024/03/14 04:08:14;;;;;;;42.10;18.42;;;;;;;8.63;100.00;100601.44;5015797;28;20794;-80
2024/03/14 04:10:42;;;;;;;36.90;17.33;;;;;;;8.60;100.00;100607.38;5026714;28;20423;-82
2024/03/14 04:13:17;;;;;;;37.58;17.35;;;;;;;8.74;100.00;100601.44;5035377;28;20421;-81
2024/03/14 04:15:50;;;;;;;37.05;17.52;;;;;;;8.75;100.00;100598.44;5031666;28;20484;-80
2024/03/14 04:18:24;;;;;;;37.85;17.27;;;;;;;8.67;100.00;100601.69;5030222;28;20432;-81
2024/03/14 04:20:52;;;;;;;37.75;16.58;;;;;;;8.61;100.00;100595.44;5027372;28;20428;-82
2024/03/14 04:23:21;;;;;;;34.40;16.90;;;;;;;8.60;100.00;100599.22;5034122;28;20424;-81
2024/03/14 04:25:54;;;;;;;34.95;17.05;;;;;;;8.61;100.00;100587.31;5029713;28;20429;-80
2024/03/14 04:28:28;;;;;;;33.22;16.10;;;;;;;8.59;100.00;100584.06;5022472;28;20420;-80
2024/03/14 04:30:56;;;;;;;34.45;16.88;;;;;;;8.60;100.00;100588.38;5046752;28;20419;-82
2024/03/14 04:33:30;;;;;;;34.17;16.70;;;;;;;8.57;100.00;100591.63;5017094;28;20419;-80
2024/03/14 04:35:59;;;;;;;36.50;17.02;;;;;;;8.56;100.00;100590.03;5040629;28;20419;-81
2024/03/14 04:38:32;;;;;;;34.47;16.58;;;;;;;8.77;100.00;100587.31;5017418;28;20430;-81
2024/03/14 04:41:14;;;;;;;36.05;16.33;;;;;;;8.70;100.00;100592.19;5032151;28;20424;-81
2024/03/14 04:43:43;;;;;;;35.33;16.80;;;;;;;8.65;100.00;100595.72;5031419;28;20428;-81
2024/03/14 04:46:17;;;;;;;33.83;16.52;;;;;;;8.68;100.00;100590.56;5034384;28;20421;-81
2024/03/14 04:48:46;;;;;;;34.67;17.08;;;;;;;8.65;100.00;100588.41;5021226;28;20415;-82
2024/03/14 04:51:14;;;;;;;33.17;16.13;;;;;;;8.59;100.00;100589.50;5020980;28;20481;-80
2024/03/14 04:53:47;;;;;;;38.80;16.92;;;;;;;8.62;100.00;100588.94;5018138;28;20434;-81
2024/03/14 04:56:21;;;;;;;34.78;16.92;;;;;;;8.56;100.00;100587.31;5032472;28;21137;-80
2024/03/14 04:58:51;;;;;;;33.75;17.13;;;;;;;8.57;100.00;100588.13;5018056;28;20415;-81
2024/03/14 05:01:25;;;;;;;33.20;16.17;;;;;;;8.59;100.00;100592.19;5038627;28;20409;-81
2024/03/14 05:03:53;;;;;;;32.15;15.85;;;;;;;8.64;100.00;100591.38;5031634;28;20427;-81
2024/03/14 05:06:27;;;;;;;31.85;16.67;;;;;;;8.62;100.00;100582.72;5023737;28;20431;-81
2024/03/14 05:08:55;;;;;;;33.33;16.40;;;;;;;8.67;100.00;100583.53;5031991;28;20495;-81
2024/03/14 05:11:23;;;;;;;35.03;16.73;;;;;;;8.67;100.00;100590.84;5036649;28;20424;-81
2024/03/14 05:13:56;;;;;;;37.88;18.83;;;;;;;8.66;100.00;100583.81;5016894;28;20416;-80
2024/03/14 05:16:26;;;;;;;34.33;17.97;;;;;;;8.64;100.00;100586.75;5040174;28;20403;-81
2024/03/14 05:18:54;;;;;;;35.17;17.58;;;;;;;8.67;100.00;100582.69;5050227;28;20423;-80
2024/03/14 05:21:22;;;;;;;33.15;16.75;;;;;;;8.59;100.00;100578.63;5010878;28;20418;-81
2024/03/14 05:23:58;;;;;;;32.10;17.15;;;;;;;8.58;100.00;100587.03;5039123;28;20421;-81
2024/03/14 05:26:27;;;;;;;33.08;17.05;;;;;;;8.70;100.00;100590.31;5019587;28;20482;-81
2024/03/14 05:29:00;;;;;;;32.85;17.05;;;;;;;8.64;100.00;100583.25;5039237;28;20446;-80
2024/03/14 05:31:28;;;;;;;33.05;16.83;;;;;;;8.63;100.00;100587.03;5018893;28;20436;-81
2024/03/14 05:34:02;;;;;;;31.52;16.25;;;;;;;8.72;100.00;100582.72;5018709;28;20420;-81
2024/03/14 05:36:30;;;;;;;32.15;16.25;;;;;;;8.65;100.00;100582.97;5023329;28;20424;-81
2024/03/14 05:38:59;;;;;;;32.55;16.75;;;;;;;8.70;100.00;100578.63;5021603;28;20434;-81
2024/03/14 05:41:27;;;;;;;32.72;16.52;;;;;;;8.66;100.00;100573.75;5024853;28;20420;-81
2024/03/14 05:44:00;;;;;;;33.03;17.20;;;;;;;8.74;100.00;100579.72;5033043;28;20522;-80
2024/03/14 05:46:29;;;;;;;30.80;15.75;;;;;;;8.71;100.00;100572.94;5033922;28;20916;-82
2024/03/14 05:49:03;;;;;;;34.27;16.77;;;;;;;8.65;100.00;100574.03;5032825;28;20430;-80
2024/03/14 05:51:31;;;;;;;33.17;16.60;;;;;;;8.66;100.00;100576.47;5015535;28;20420;-82
2024/03/14 05:53:59;;;;;;;32.22;17.15;;;;;;;8.76;100.00;100583.81;5034708;28;20419;-81
2024/03/14 05:56:28;;;;;;;32.00;16.48;;;;;;;8.76;100.00;100577.56;5025979;28;20416;-81
2024/03/14 05:58:57;;;;;;;33.20;16.52;;;;;;;8.68;100.00;100582.44;5023576;28;20419;-82
2024/03/14 06:01:30;;;;;;;33.92;16.95;;;;;;;8.74;100.00;100575.13;5027869;28;20425;-82
2024/03/14 06:04:05;;;;;;;35.60;17.05;;;;;;;8.75;100.00;100581.38;5011552;28;20427;-81
2024/03/14 06:06:38;;;;;;;32.50;16.65;;;;;;;8.79;100.00;100582.47;5019683;28;20419;-81
2024/03/14 06:09:15;;;;;;;34.92;17.10;;;;;;;8.74;100.00;100580.56;5017132;28;20438;-81
2024/03/14 06:11:43;;;;;;;32.35;16.90;;;;;;;8.78;100.00;100584.38;5019305;28;20906;-81
2024/03/14 06:14:16;;;;;;;34.42;17.75;;;;;;;8.80;100.00;100587.59;5024281;28;20427;-81
2024/03/14 06:16:46;;;;;;;34.30;17.70;;;;;;;8.79;100.00;100588.69;5033847;28;20408;-80
2024/03/14 06:19:14;;;;;;;35.03;17.33;;;;;;;8.84;100.00;100591.41;5014740;28;20416;-80
2024/03/14 06:21:45;;;;;;;32.67;17.45;;;;;;;8.85;100.00;100594.94;5017985;28;20419;-81
2024/03/14 06:24:19;;;;;;;33.50;17.60;;;;;;;8.81;100.00;100586.53;5018578;28;20451;-81
2024/03/14 06:26:52;;;;;;;34.10;16.95;;;;;;;8.95;100.00;100591.41;5032251;28;20895;-82
2024/03/14 06:29:22;;;;;;;36.03;18.55;;;;;;;8.85;100.00;100594.94;5012077;28;20439;-82
2024/03/14 06:31:55;;;;;;;36.13;17.77;;;;;;;8.97;100.00;100584.63;5035383;28;20424;-82
2024/03/14 06:34:29;;;;;;;34.67;18.02;;;;;;;9.02;100.00;100583.81;5035160;28;20498;-81
2024/03/14 06:37:03;;;;;;;32.92;18.27;;;;;;;8.95;100.00;100585.97;5027586;28;20439;-82
2024/03/14 06:39:37;;;;;;;33.95;18.27;;;;;;;8.83;100.00;100586.25;5024662;28;20444;-81
2024/03/14 06:42:06;;;;;;;37.17;18.00;;;;;;;8.84;100.00;100585.97;5034772;28;20443;-82
2024/03/14 06:44:35;;;;;;;37.55;18.38;;;;;;;8.91;100.00;100588.44;5029652;28;20427;-81
2024/03/14 06:47:08;;;;;;;38.33;18.15;;;;;;;8.90;100.00;100584.09;5020250;28;20428;-82
2024/03/14 06:49:42;;;;;;;39.00;19.00;;;;;;;8.95;100.00;100586.81;5017382;28;20435;-81
2024/03/14 06:52:12;;;;;;;39.47;18.52;;;;;;;8.98;100.00;100585.47;5030292;28;21354;-82
2024/03/14 06:54:41;;;;;;;39.72;18.50;;;;;;;9.04;100.00;100587.06;5008088;28;20438;-82
2024/03/14 06:57:14;;;;;;;41.00;18.13;;;;;;;8.98;100.00;100599.03;5016982;28;20427;-81
2024/03/14 06:59:52;;;;;;;39.23;18.73;;;;;;;9.01;100.00;100593.03;5019967;28;20500;-81
2024/03/14 07:02:21;;;;;;;39.33;18.92;;;;;;;9.22;100.00;100595.75;5028651;28;20409;-84
2024/03/14 07:04:51;;;;;;;34.58;18.17;;;;;;;9.05;100.00;100599.56;5026625;28;20418;-81
2024/03/14 07:07:26;;;;;;;34.60;18.15;;;;;;;9.09;100.00;100597.13;5018650;28;20420;-82
2024/03/14 07:09:55;;;;;;;36.63;18.73;;;;;;;9.18;100.00;100600.91;5037377;28;20419;-81
2024/03/14 07:12:23;;;;;;;36.50;19.17;;;;;;;9.25;100.00;100596.00;5008699;28;20414;-81
2024/03/14 07:14:57;;;;;;;35.35;18.48;;;;;;;9.33;100.00;100595.47;5010827;28;20419;-81
2024/03/14 07:17:25;;;;;;;33.47;18.58;;;;;;;9.47;100.00;100600.34;5018855;28;20419;-81
2024/03/14 07:19:54;;;;;;;31.47;17.07;;;;;;;9.49;100.00;100596.25;5016648;28;20427;-80
2024/03/14 07:22:24;;;;;;;31.55;17.67;;;;;;;9.40;100.00;100597.91;5035480;28;20416;-81
2024/03/14 07:24:59;;;;;;;32.35;17.50;;;;;;;9.35;100.00;100601.44;5019171;28;20456;-83
2024/03/14 07:27:28;;;;;;;31.42;17.20;;;;;;;9.50;100.00;100599.78;5028842;28;20423;-87
2024/03/14 07:30:34;;;;;;;30.13;17.20;;;;;;;9.55;100.00;100599.78;5033049;28;20427;-85
2024/03/14 07:33:08;;;;;;;33.43;18.10;;;;;;;9.47;100.00;100606.59;5029220;28;20432;-84
2024/03/14 07:35:44;;;;;;;32.13;16.88;;;;;;;9.53;100.00;100616.34;5013607;28;20425;-81
2024/03/14 07:38:13;;;;;;;31.83;16.90;;;;;;;9.68;100.00;100610.09;5014239;28;22124;-82
2024/03/14 07:40:46;;;;;;;29.02;16.60;;;;;;;9.68;100.00;100615.53;5031595;28;20431;-80
2024/03/14 07:43:15;;;;;;;30.45;16.90;;;;;;;9.79;100.00;100610.03;5014108;28;20430;-81
2024/03/14 07:45:43;;;;;;;29.40;16.27;;;;;;;9.83;100.00;100620.09;5024319;28;20427;-81
2024/03/14 07:48:11;;;;;;;30.05;16.50;;;;;;;9.82;100.00;100615.75;5016912;28;20438;-83
2024/03/14 07:50:45;;;;;;;27.25;15.82;;;;;;;9.85;100.00;100619.81;5014887;28;20420;-81
2024/03/14 07:53:13;;;;;;;30.23;16.60;;;;;;;10.04;100.00;100623.56;5025936;28;20442;-81
2024/03/14 07:55:47;;;;;;;27.15;15.63;;;;;;;10.19;100.00;100627.31;5027183;28;20440;-81
2024/03/14 07:58:21;;;;;;;27.33;15.52;;;;;;;10.02;100.00;100624.94;5022091;28;20430;-81
2024/03/14 08:00:55;;;;;;;26.20;15.25;;;;;;;9.81;100.00;100638.56;5029809;28;20415;-79
2024/03/14 08:03:29;;;;;;;25.57;14.83;;;;;;;9.87;100.00;100637.50;5042816;28;20421;-81
2024/03/14 08:05:59;;;;;;;26.90;15.55;;;;;;;9.78;100.00;100644.56;5010871;28;20439;-81
2024/03/14 08:08:27;;;;;;;27.48;16.13;;;;;;;9.77;100.00;100636.69;5028597;28;20425;-82
2024/03/14 08:11:03;;;;;;;27.67;15.57;;;;;;;9.87;100.00;100636.66;5027080;28;20459;-82
2024/03/14 08:13:37;;;;;;;28.77;15.50;;;;;;;9.91;100.00;100643.16;5007100;28;21098;-81
2024/03/14 08:16:17;;;;;;;25.38;15.10;;;;;;;9.85;100.00;100636.13;5001160;28;20424;-82
2024/03/14 08:18:49;;;;;;;26.80;15.23;;;;;;;9.69;100.00;100629.91;4995454;28;20456;-85
2024/03/14 08:21:28;;;;;;;30.57;16.07;;;;;;;9.69;100.00;100629.91;5005025;28;20476;-84
2024/03/14 08:23:58;;;;;;;26.83;16.00;;;;;;;9.73;100.00;100633.72;5018562;28;20957;-83
2024/03/14 08:26:33;;;;;;;27.70;15.48;;;;;;;9.78;100.00;100625.56;5004885;28;20438;-84
2024/03/14 08:29:07;;;;;;;29.23;15.55;;;;;;;9.76;100.00;100629.63;5002230;28;20800;-83
2024/03/14 08:31:41;;;;;;;28.40;15.70;;;;;;;9.74;100.00;100631.81;5021877;28;20426;-84
2024/03/14 08:34:14;;;;;;;26.50;15.23;;;;;;;9.72;100.00;100623.91;5014173;28;20450;-82
2024/03/14 08:36:48;;;;;;;27.50;15.57;;;;;;;9.75;100.00;100630.72;5006156;28;20442;-85
2024/03/14 08:39:17;;;;;;;25.67;15.35;;;;;;;9.87;100.00;100623.91;5020436;28;20781;-81
2024/03/14 08:41:46;;;;;;;27.13;16.02;;;;;;;10.13;100.00;100625.72;5022787;28;20427;-84
2024/03/14 08:44:14;;;;;;;27.98;15.70;;;;;;;10.07;100.00;100619.47;5026475;28;20435;-84
2024/03/14 08:46:48;;;;;;;29.37;15.80;;;;;;;10.29;100.00;100619.13;5017945;28;20423;-83
2024/03/14 08:49:21;;;;;;;30.17;15.90;;;;;;;10.28;100.00;100620.19;5011222;28;20423;-84
2024/03/14 08:51:55;;;;;;;25.05;15.20;;;;;;;10.49;100.00;100622.84;5009599;28;20439;-82
2024/03/14 08:54:29;;;;;;;28.33;16.38;;;;;;;10.57;100.00;100618.75;5002188;28;20428;-85
2024/03/14 08:57:04;;;;;;;25.98;15.55;;;;;;;10.77;100.00;100613.16;5022021;28;20423;-83
2024/03/14 08:59:37;;;;;;;26.55;15.63;;;;;;;10.94;100.00;100620.09;5022907;28;20431;-83
2024/03/14 09:02:12;;;;;;;24.27;14.90;;;;;;;11.00;100.00;100616.25;5001751;28;20447;-84
2024/03/14 09:04:46;;;;;;;24.30;14.20;;;;;;;11.27;100.00;100615.78;5018539;28;20427;-85
2024/03/14 09:07:19;;;;;;;23.10;14.65;;;;;;;11.14;100.00;100613.69;5005873;28;20428;-85
2024/03/14 09:09:48;;;;;;;23.25;13.82;;;;;;;11.34;100.00;100620.91;5021856;28;20423;-85
2024/03/14 09:12:25;;;;;;;22.25;14.10;;;;;;;11.11;100.00;100609.63;4998068;28;21115;-84
2024/03/14 09:14:54;;;;;;;21.92;13.30;;;;;;;11.32;100.00;100620.34;5007180;28;20443;-85
2024/03/14 09:17:22;;;;;;;23.03;14.00;;;;;;;11.38;100.00;100628.19;4998415;28;20435;-82
2024/03/14 09:19:56;;;;;;;22.02;13.63;;;;;;;11.36;100.00;100618.69;5000950;28;20466;-84
2024/03/14 09:22:29;;;;;;;22.57;13.17;;;;;;;11.36;100.00;100615.94;5011948;28;20427;-83
2024/03/14 09:24:57;;;;;;;22.17;13.70;;;;;;;11.38;100.00;100619.22;5005702;28;20443;-84
2024/03/14 09:27:32;;;;;;;19.80;12.80;;;;;;;11.35;100.00;100617.03;5024680;28;20420;-84
2024/03/14 09:30:08;;;;;;;20.67;13.20;;;;;;;11.29;100.00;100619.00;5022196;28;20438;-84
2024/03/14 09:32:42;;;;;;;21.00;12.82;;;;;;;11.48;100.00;100619.13;5011533;28;20453;-85
2024/03/14 09:35:11;;;;;;;22.17;13.00;;;;;;;11.39;100.00;100618.09;5016844;28;20427;-85
2024/03/14 09:37:40;;;;;;;18.70;12.05;;;;;;;11.44;100.00;100617.25;5022407;28;20403;-82
2024/03/14 09:40:13;;;;;;;22.10;13.52;;;;;;;11.53;100.00;100620.97;5006461;28;20443;-82
2024/03/14 09:42:41;;;;;;;22.42;12.60;;;;;;;11.64;100.00;100618.94;5003093;28;20502;-85
2024/03/14 09:45:12;;;;;;;20.55;12.55;;;;;;;11.78;100.00;100619.06;4998713;28;21278;-86
2024/03/14 09:47:50;;;;;;;21.10;13.15;;;;;;;11.93;100.00;100612.66;5017761;28;20434;-85
2024/03/14 09:50:18;;;;;;;20.05;12.02;;;;;;;12.08;100.00;100605.13;5003645;28;20435;-83
2024/03/14 09:52:52;;;;;;;19.05;11.98;;;;;;;12.12;100.00;100615.44;5005400;28;20431;-83
2024/03/14 09:55:30;;;;;;;23.58;12.43;;;;;;;12.16;100.00;100611.03;4999858;28;20440;-85
2024/03/14 09:57:58;;;;;;;19.50;12.07;;;;;;;12.23;100.00;100612.28;5014812;28;20404;-84
2024/03/14 10:00:31;;;;;;;17.10;11.18;;;;;;;12.11;100.00;100614.66;4995210;28;20450;-84
2024/03/14 10:03:05;;;;;;;17.58;11.35;;;;;;;12.08;100.00;100604.31;5010482;28;20420;-85
2024/03/14 10:05:35;;;;;;;17.50;11.23;;;;;;;12.22;100.00;100615.31;5002641;28;20472;-84
2024/03/14 10:08:04;;;;;;;19.17;11.00;;;;;;;12.07;100.00;100614.41;5020589;28;20433;-84
2024/03/14 10:10:34;;;;;;;16.92;11.25;;;;;;;12.21;100.00;100610.97;4996886;28;20431;-82
2024/03/14 10:13:08;;;;;;;16.87;10.80;;;;;;;12.08;100.00;100607.03;4982248;28;20524;-83
2024/03/14 10:15:42;;;;;;;17.23;10.73;;;;;;;12.23;100.00;100609.56;5018038;28;20442;-85
2024/03/14 10:18:12;;;;;;;17.10;10.82;;;;;;;12.36;100.00;100602.59;5001457;28;20431;-85
2024/03/14 10:20:40;;;;;;;17.85;11.18;;;;;;;12.48;100.00;100612.25;5018307;28;20441;-83
2024/03/14 10:23:17;;;;;;;17.85;11.05;;;;;;;12.28;100.00;100616.88;5002357;28;20423;-84
2024/03/14 10:25:53;;;;;;;18.80;11.18;;;;;;;12.37;100.00;100609.69;5024011;28;20431;-84
2024/03/14 10:28:28;;;;;;;17.65;10.77;;;;;;;12.31;100.00;100607.31;5001862;28;21104;-82
2024/03/14 10:31:05;;;;;;;16.73;10.80;;;;;;;12.38;100.00;100599.56;5006415;28;20431;-85
2024/03/14 10:33:40;;;;;;;16.13;10.23;;;;;;;12.71;100.00;100597.72;5017660;28;20785;-84
2024/03/14 10:36:13;;;;;;;18.00;10.40;;;;;;;12.87;100.00;100598.31;5004922;28;20432;-83
2024/03/14 10:38:43;;;;;;;16.47;10.47;;;;;;;13.06;100.00;100590.09;5000222;28;20527;-84
2024/03/14 10:41:17;;;;;;;18.70;9.57;;;;;;;13.10;100.00;100590.28;5004676;28;20839;-84
2024/03/14 10:43:53;;;;;;;15.13;9.05;;;;;;;13.20;100.00;100584.66;5009027;28;20416;-85
2024/03/14 10:46:23;;;;;;;15.43;9.48;;;;;;;13.31;100.00;100596.19;5003944;28;20443;-86
2024/03/14 10:48:52;;;;;;;17.95;8.70;;;;;;;13.36;100.00;100589.88;5002413;28;20978;-85
2024/03/14 10:51:20;;;;;;;15.95;8.90;;;;;;;13.27;100.00;100587.81;5003514;28;20431;-83
2024/03/14 10:53:50;;;;;;;16.30;9.15;;;;;;;13.10;100.00;100587.53;5002471;28;21574;-84
2024/03/14 10:56:20;;;;;;;15.88;10.00;;;;;;;13.27;100.00;100587.81;5007189;28;20876;-86
2024/03/14 10:58:54;;;;;;;15.47;9.27;;;;;;;13.26;100.00;100586.19;5001209;28;20435;-84
2024/03/14 11:01:27;;;;;;;14.38;8.85;;;;;;;13.34;100.00;100579.22;5018888;28;20427;-82
2024/03/14 11:04:02;;;;;;;13.73;8.10;;;;;;;13.47;100.00;100576.84;5005033;28;20419;-82
2024/03/14 11:06:35;;;;;;;12.73;8.27;;;;;;;13.35;100.00;100571.81;4999976;28;20424;-84
2024/03/14 11:09:10;;;;;;;14.52;8.60;;;;;;;13.51;100.00;100573.19;5010975;28;20442;-82
2024/03/14 11:11:38;;;;;;;14.63;9.10;;;;;;;13.56;100.00;100575.84;5005347;28;20439;-82
2024/03/14 11:14:07;;;;;;;14.20;8.30;;;;;;;13.69;100.00;100578.88;4983772;28;20424;-84
2024/03/14 11:16:36;;;;;;;15.27;7.70;;;;;;;13.69;100.00;100568.75;5003991;28;20435;-83
2024/03/14 11:19:05;;;;;;;12.53;8.03;;;;;;;13.70;100.00;100573.09;4999791;28;20424;-85
2024/03/14 11:21:34;;;;;;;13.05;7.82;;;;;;;13.87;100.00;100575.22;5018345;28;20408;-83
2024/03/14 11:24:02;;;;;;;13.93;7.40;;;;;;;14.26;100.00;100559.38;4999902;28;20431;-86
2024/03/14 11:26:31;;;;;;;13.20;6.72;;;;;;;14.37;100.00;100558.00;5025481;28;20427;-83
2024/03/14 11:29:04;;;;;;;11.07;6.40;;;;;;;14.58;100.00;100555.63;5000589;28;20435;-83